createdAt,value
2022-08-07T00:00:49.506Z,15.31
2022-08-07T00:03:52.301Z,15.29
2022-08-07T00:06:57.042Z,15.29
2022-08-07T00:10:26.661Z,15.29
2022-08-07T00:13:26.948Z,15.28
2022-08-07T00:16:29.168Z,15.28
2022-08-07T00:20:00.360Z,15.29
2022-08-07T00:22:54.020Z,15.32
2022-08-07T00:26:00.629Z,15.34
2022-08-07T00:29:06.132Z,15.36
2022-08-07T00:32:07.999Z,15.36
2022-08-07T00:35:10.086Z,15.38
2022-08-07T00:38:11.917Z,15.41
2022-08-07T00:41:15.287Z,15.43
2022-08-07T00:44:17.545Z,15.47
2022-08-07T00:48:08.782Z,15.46
2022-08-07T00:50:50.887Z,15.43
2022-08-07T00:53:55.266Z,15.42
2022-08-07T00:56:58.030Z,15.41
2022-08-07T01:00:00.038Z,15.38
2022-08-07T01:03:01.852Z,15.38
2022-08-07T01:06:03.743Z,15.40
2022-08-07T01:09:05.683Z,15.41
2022-08-07T01:12:30.288Z,15.41
2022-08-07T01:16:01.086Z,15.42
2022-08-07T01:18:54.524Z,15.43
2022-08-07T01:21:56.665Z,15.41
2022-08-07T01:24:59.078Z,15.37
2022-08-07T01:28:00.840Z,15.38
2022-08-07T01:31:03.077Z,15.39
2022-08-07T01:34:08.141Z,15.41
2022-08-07T01:37:13.912Z,15.39
2022-08-07T01:40:20.372Z,15.36
2022-08-07T01:43:22.380Z,15.35
2022-08-07T01:46:27.762Z,15.35
2022-08-07T01:49:29.610Z,15.33
2022-08-07T01:52:35.562Z,15.31
2022-08-07T01:55:40.270Z,15.31
2022-08-07T01:58:53.147Z,15.31
2022-08-07T02:02:04.057Z,15.30
2022-08-07T02:05:16.096Z,15.31
2022-08-07T02:08:35.564Z,15.31
2022-08-07T02:12:02.928Z,15.30
2022-08-07T02:15:06.950Z,15.29
2022-08-07T02:18:13.197Z,15.28
2022-08-07T02:21:16.307Z,15.28
2022-08-07T02:24:19.044Z,15.28
2022-08-07T02:27:23.599Z,15.28
2022-08-07T02:30:26.469Z,15.29
2022-08-07T02:33:33.067Z,15.28
2022-08-07T02:36:52.045Z,15.28
2022-08-07T02:40:02.044Z,15.28
2022-08-07T02:43:16.828Z,15.29
2022-08-07T02:46:21.834Z,15.29
2022-08-07T02:49:58.492Z,15.28
2022-08-07T02:53:00.842Z,15.28
2022-08-07T02:56:13.146Z,15.28
2022-08-07T02:59:27.651Z,15.27
2022-08-07T03:02:29.881Z,15.27
2022-08-07T03:05:35.889Z,15.26
2022-08-07T03:08:39.198Z,15.24
2022-08-07T03:11:52.500Z,15.24
2022-08-07T03:15:02.446Z,15.23
2022-08-07T03:18:09.689Z,15.20
2022-08-07T03:21:19.409Z,15.19
2022-08-07T03:24:26.689Z,15.20
2022-08-07T03:28:09.843Z,15.19
2022-08-07T03:31:12.492Z,15.20
2022-08-07T03:34:18.922Z,15.22
2022-08-07T03:37:27.707Z,15.25
2022-08-07T03:40:31.010Z,15.25
2022-08-07T03:43:38.895Z,15.27
2022-08-07T03:47:10.716Z,15.32
2022-08-07T03:50:10.603Z,15.35
2022-08-07T03:53:12.709Z,15.39
2022-08-07T03:56:32.812Z,15.41
2022-08-07T03:59:36.543Z,15.39
2022-08-07T04:02:49.466Z,15.39
2022-08-07T04:05:51.588Z,15.36
2022-08-07T04:09:01.988Z,15.34
2022-08-07T04:12:27.462Z,15.37
2022-08-07T04:15:27.655Z,15.42
2022-08-07T04:18:57.612Z,15.46
2022-08-07T04:21:59.030Z,15.48
2022-08-07T04:25:02.459Z,15.51
2022-08-07T04:28:08.100Z,15.55
2022-08-07T04:31:20.093Z,15.60
2022-08-07T04:34:24.259Z,15.64
2022-08-07T04:37:40.327Z,15.68
2022-08-07T04:40:57.490Z,15.74
2022-08-07T04:44:14.561Z,15.80
2022-08-07T04:47:57.150Z,15.85
2022-08-07T04:51:32.002Z,15.94
2022-08-07T04:54:36.988Z,16.03
2022-08-07T04:58:12.437Z,16.09
2022-08-07T05:01:39.502Z,16.17
2022-08-07T05:05:51.855Z,16.26
2022-08-07T05:09:01.063Z,16.34
2022-08-07T05:12:05.532Z,16.41
2022-08-07T05:15:23.255Z,16.50
2022-08-07T05:18:29.608Z,16.59
2022-08-07T05:22:00.612Z,16.61
2022-08-07T05:24:57.249Z,16.68
2022-08-07T05:28:20.675Z,16.72
2022-08-07T05:31:35.270Z,16.75
2022-08-07T05:34:40.880Z,16.79
2022-08-07T05:37:43.800Z,16.79
2022-08-07T05:40:51.449Z,16.77
2022-08-07T05:44:08.073Z,16.79
2022-08-07T05:47:18.609Z,16.79
2022-08-07T05:50:22.185Z,16.82
2022-08-07T05:54:12.901Z,16.81
2022-08-07T05:56:47.815Z,16.79
2022-08-07T05:59:55.843Z,16.80
2022-08-07T06:03:00.868Z,16.76
2022-08-07T06:06:03.070Z,16.72
2022-08-07T06:09:05.552Z,16.68
2022-08-07T06:12:08.299Z,16.66
2022-08-07T06:15:16.059Z,16.60
2022-08-07T06:18:18.470Z,16.64
2022-08-07T06:22:15.469Z,16.66
2022-08-07T06:24:53.493Z,16.63
2022-08-07T06:28:06.909Z,16.60
2022-08-07T06:31:10.177Z,16.58
2022-08-07T06:34:12.792Z,16.60
2022-08-07T06:37:17.024Z,16.60
2022-08-07T06:40:21.359Z,16.70
2022-08-07T06:43:24.945Z,16.90
2022-08-07T06:46:35.024Z,17.06
2022-08-07T06:49:51.209Z,17.10
2022-08-07T06:52:55.946Z,17.17
2022-08-07T06:56:01.219Z,17.30
2022-08-07T07:00:12.664Z,17.61
2022-08-07T07:02:54.444Z,17.90
2022-08-07T07:06:04.355Z,18.05
2022-08-07T07:09:19.114Z,18.06
2022-08-07T07:12:33.625Z,18.04
2022-08-07T07:15:43.239Z,18.22
2022-08-07T07:18:50.944Z,18.50
2022-08-07T07:22:12.065Z,18.49
2022-08-07T07:26:33.376Z,18.56
2022-08-07T07:29:40.048Z,18.83
2022-08-07T07:32:08.878Z,18.94
2022-08-07T07:35:12.414Z,19.16
2022-08-07T07:38:14.437Z,19.44
2022-08-07T07:41:18.183Z,19.57
2022-08-07T07:44:26.692Z,19.51
2022-08-07T07:47:29.698Z,19.54
2022-08-07T07:50:39.035Z,19.28
2022-08-07T07:53:51.954Z,19.14
2022-08-07T07:56:57.417Z,19.22
2022-08-07T08:00:01.007Z,19.53
2022-08-07T08:03:16.798Z,19.81
2022-08-07T08:06:34.298Z,20.12
2022-08-07T08:09:52.225Z,20.45
2022-08-07T08:13:03.059Z,20.68
2022-08-07T08:16:06.131Z,20.61
2022-08-07T08:20:15.871Z,20.73
2022-08-07T08:22:58.897Z,21.09
2022-08-07T08:26:22.314Z,21.51
2022-08-07T08:29:27.667Z,21.53
2022-08-07T08:32:41.346Z,21.34
2022-08-07T08:35:50.989Z,21.56
2022-08-07T08:38:54.465Z,21.95
2022-08-07T08:42:10.282Z,22.15
2022-08-07T08:45:41.917Z,22.40
2022-08-07T08:48:58.251Z,22.87
2022-08-07T08:52:16.727Z,23.10
2022-08-07T08:55:54.276Z,23.31
2022-08-07T08:59:16.433Z,23.44
2022-08-07T09:02:37.520Z,23.57
2022-08-07T09:05:54.607Z,23.36
2022-08-07T09:09:13.422Z,23.35
2022-08-07T09:12:43.127Z,23.78
2022-08-07T09:16:25.603Z,24.16
2022-08-07T09:19:52.601Z,24.19
2022-08-07T09:24:34.203Z,23.84
2022-08-07T09:27:08.993Z,23.69
2022-08-07T09:30:14.119Z,23.13
2022-08-07T09:33:52.573Z,23.39
2022-08-07T09:37:05.017Z,23.70
2022-08-07T09:40:17.905Z,24.00
2022-08-07T09:44:05.569Z,24.34
2022-08-07T09:47:51.687Z,24.16
2022-08-07T09:51:02.217Z,23.69
2022-08-07T09:54:07.215Z,23.60
2022-08-07T09:57:22.434Z,23.34
2022-08-07T10:00:32.762Z,23.67
2022-08-07T10:04:05.660Z,24.47
2022-08-07T10:07:53.538Z,24.86
2022-08-07T10:11:59.918Z,25.31
2022-08-07T10:14:55.197Z,25.15
2022-08-07T10:18:14.162Z,24.95
2022-08-07T10:22:15.036Z,25.36
2022-08-07T10:25:43.234Z,26.64
2022-08-07T10:29:16.679Z,26.68
2022-08-07T10:32:53.108Z,26.64
2022-08-07T10:36:29.474Z,26.70
2022-08-07T10:40:02.850Z,26.71
2022-08-07T10:43:15.785Z,26.23
2022-08-07T10:46:26.409Z,25.66
2022-08-07T10:49:49.485Z,25.18
2022-08-07T10:53:22.601Z,25.39
2022-08-07T10:56:43.231Z,25.33
2022-08-07T10:59:59.326Z,25.25
2022-08-07T11:03:37.808Z,25.08
2022-08-07T11:07:14.983Z,24.82
2022-08-07T11:10:40.256Z,24.38
2022-08-07T11:14:46.243Z,24.44
2022-08-07T11:17:43.235Z,24.43
2022-08-07T11:20:55.955Z,24.38
2022-08-07T11:24:04.104Z,24.42
2022-08-07T11:28:02.585Z,24.17
2022-08-07T11:31:08.818Z,23.83
2022-08-07T11:34:28.982Z,23.77
2022-08-07T11:37:58.001Z,24.79
2022-08-07T11:41:22.088Z,25.69
2022-08-07T11:44:59.309Z,26.00
2022-08-07T11:48:37.578Z,25.49
2022-08-07T11:52:00.920Z,24.66
2022-08-07T11:56:11.915Z,24.76
2022-08-07T12:00:11.340Z,24.93
2022-08-07T12:03:41.403Z,25.27
2022-08-07T12:07:03.003Z,24.71
2022-08-07T12:10:18.605Z,24.21
2022-08-07T12:13:45.018Z,24.15
2022-08-07T12:17:30.336Z,24.02
2022-08-07T12:20:38.580Z,23.60
2022-08-07T12:24:06.083Z,23.52
2022-08-07T12:27:16.368Z,23.54
2022-08-07T12:30:19.563Z,23.67
2022-08-07T12:33:31.058Z,23.62
2022-08-07T12:36:51.752Z,23.53
2022-08-07T12:39:55.532Z,23.72
2022-08-07T12:43:02.126Z,23.73
2022-08-07T12:46:26.312Z,23.53
2022-08-07T12:49:52.998Z,23.86
2022-08-07T12:53:19.293Z,24.28
2022-08-07T12:56:40.264Z,24.66
2022-08-07T12:59:55.030Z,25.02
2022-08-07T13:03:13.064Z,26.04
2022-08-07T13:07:00.957Z,25.84
2022-08-07T13:10:39.355Z,25.18
2022-08-07T13:14:03.750Z,24.98
2022-08-07T13:17:41.150Z,24.52
2022-08-07T13:20:46.762Z,24.21
2022-08-07T13:24:11.473Z,24.02
2022-08-07T13:27:20.592Z,23.73
2022-08-07T13:30:41.093Z,23.55
2022-08-07T13:34:34.443Z,23.52
2022-08-07T13:37:58.697Z,23.46
2022-08-07T13:41:41.431Z,23.58
2022-08-07T13:44:45.174Z,24.26
2022-08-07T13:48:10.519Z,24.85
2022-08-07T13:51:28.561Z,25.40
2022-08-07T13:54:49.353Z,26.59
2022-08-07T13:58:27.821Z,27.39
2022-08-07T14:01:50.837Z,27.65
2022-08-07T14:05:10.304Z,27.99
2022-08-07T14:08:13.153Z,28.89
2022-08-07T14:11:18.954Z,29.54
2022-08-07T14:14:33.429Z,29.65
2022-08-07T14:18:15.800Z,29.94
2022-08-07T14:22:00.554Z,30.86
2022-08-07T14:24:41.209Z,30.90
2022-08-07T14:28:11.801Z,30.53
2022-08-07T14:31:08.464Z,29.76
2022-08-07T14:34:12.305Z,29.60
2022-08-07T14:37:36.272Z,30.32
2022-08-07T14:40:43.012Z,30.93
2022-08-07T14:47:17.389Z,31.52
2022-08-07T14:50:22.739Z,31.48
2022-08-07T14:54:03.783Z,31.60
2022-08-07T14:56:52.336Z,31.90
2022-08-07T15:00:03.452Z,32.08
2022-08-07T15:03:18.917Z,32.21
2022-08-07T15:06:25.454Z,32.11
2022-08-07T15:09:58.511Z,31.98
2022-08-07T15:16:30.953Z,30.88
2022-08-07T15:20:30.406Z,30.23
2022-08-07T15:23:00.694Z,29.66
2022-08-07T15:26:28.838Z,29.20
2022-08-07T15:30:06.580Z,28.83
2022-08-07T15:33:04.171Z,28.47
2022-08-07T15:36:08.402Z,28.20
2022-08-07T15:39:12.437Z,28.09
2022-08-07T15:42:47.836Z,28.11
2022-08-07T15:45:55.420Z,28.14
2022-08-07T15:49:11.714Z,27.95
2022-08-07T15:52:21.024Z,27.52
2022-08-07T15:55:53.970Z,27.15
2022-08-07T15:58:55.302Z,27.02
2022-08-07T16:02:01.840Z,26.83
2022-08-07T16:05:15.104Z,26.63
2022-08-07T16:08:30.421Z,26.43
2022-08-07T16:12:01.472Z,26.26
2022-08-07T16:15:57.247Z,26.02
2022-08-07T16:19:16.987Z,25.76
2022-08-07T16:22:54.559Z,25.53
2022-08-07T16:26:30.639Z,25.26
2022-08-07T16:30:09.621Z,25.07
2022-08-07T16:34:01.599Z,24.83
2022-08-07T16:37:02.454Z,24.65
2022-08-07T16:40:36.279Z,24.45
2022-08-07T16:44:57.217Z,24.19
2022-08-07T16:48:15.327Z,23.97
2022-08-07T16:51:54.560Z,23.82
2022-08-07T16:55:08.494Z,23.67
2022-08-07T16:58:54.255Z,23.59
2022-08-07T17:02:03.110Z,23.44
2022-08-07T17:06:19.975Z,23.31
2022-08-07T17:09:09.192Z,23.13
2022-08-07T17:12:36.762Z,22.94
2022-08-07T17:15:50.739Z,22.75
2022-08-07T17:19:01.716Z,22.60
2022-08-07T17:22:10.857Z,22.46
2022-08-07T17:25:47.837Z,22.28
2022-08-07T17:28:52.128Z,22.07
2022-08-07T17:32:03.924Z,21.87
2022-08-07T17:35:50.502Z,21.61
2022-08-07T17:39:01.096Z,21.31
2022-08-07T17:42:06.793Z,21.04
2022-08-07T17:45:14.904Z,20.71
2022-08-07T17:49:09.489Z,20.31
2022-08-07T17:52:30.643Z,19.94
2022-08-07T17:55:55.765Z,19.68
2022-08-07T17:59:16.998Z,19.44
2022-08-07T18:02:56.473Z,19.22
2022-08-07T18:06:06.587Z,18.97
2022-08-07T18:10:05.316Z,18.74
2022-08-07T18:13:15.348Z,18.56
2022-08-07T18:16:32.615Z,18.37
2022-08-07T18:21:07.068Z,18.17
2022-08-07T18:23:42.239Z,18.01
2022-08-07T18:26:54.651Z,17.82
2022-08-07T18:30:31.429Z,17.65
2022-08-07T18:34:06.774Z,17.45
2022-08-07T18:38:58.894Z,17.22
2022-08-07T18:41:10.195Z,17.05
2022-08-07T18:45:40.094Z,16.88
2022-08-07T18:49:03.598Z,16.68
2022-08-07T18:52:40.933Z,16.51
2022-08-07T18:56:31.606Z,16.34
2022-08-07T18:59:47.650Z,16.27
2022-08-07T19:03:11.833Z,16.18
2022-08-07T19:06:18.040Z,16.09
2022-08-07T19:09:56.689Z,15.98
2022-08-07T19:13:21.643Z,15.89
2022-08-07T19:17:06.001Z,15.82
2022-08-07T19:20:24.996Z,15.68
2022-08-07T19:23:59.232Z,15.52
2022-08-07T19:28:57.379Z,15.40
2022-08-07T19:31:01.644Z,15.26
2022-08-07T19:33:58.411Z,15.14
2022-08-07T19:37:09.628Z,15.06
2022-08-07T19:40:18.763Z,14.98
2022-08-07T19:43:46.093Z,14.92
2022-08-07T19:46:57.733Z,14.84
2022-08-07T19:50:41.399Z,14.75
2022-08-07T19:54:34.267Z,14.65
2022-08-07T19:58:00.654Z,14.55
2022-08-07T20:00:28.403Z,14.45
2022-08-07T20:03:35.646Z,14.37
2022-08-07T20:06:43.046Z,14.31
2022-08-07T20:10:35.219Z,14.20
2022-08-07T20:13:23.931Z,14.01
2022-08-07T20:16:35.868Z,13.81
2022-08-07T20:19:47.950Z,13.67
2022-08-07T20:23:23.219Z,13.58
2022-08-07T20:26:45.104Z,13.49
2022-08-07T20:29:59.230Z,13.40
2022-08-07T20:33:05.280Z,13.34
2022-08-07T20:36:13.235Z,13.27
2022-08-07T20:40:02.178Z,13.25
2022-08-07T20:42:56.157Z,13.24
2022-08-07T20:46:27.190Z,13.15
2022-08-07T20:50:01.250Z,13.11
2022-08-07T20:52:52.092Z,13.15
2022-08-07T20:55:59.035Z,13.14
2022-08-07T20:59:05.421Z,13.16
2022-08-07T21:02:38.339Z,13.11
2022-08-07T21:05:56.535Z,13.06
2022-08-07T21:09:14.151Z,13.03
2022-08-07T21:12:28.615Z,12.99
2022-08-07T21:15:48.140Z,12.98
2022-08-07T21:18:57.934Z,12.97
2022-08-07T21:22:04.602Z,13.00
2022-08-07T21:25:17.955Z,13.05
2022-08-07T21:28:49.325Z,13.10
2022-08-07T21:32:43.698Z,13.15
2022-08-07T21:36:05.766Z,13.20
2022-08-07T21:39:45.223Z,13.30
2022-08-07T21:42:51.274Z,13.30
2022-08-07T21:46:11.027Z,13.29
2022-08-07T21:50:01.056Z,13.32
2022-08-07T21:53:24.937Z,13.31
2022-08-07T21:56:37.701Z,13.30
2022-08-07T22:00:05.144Z,13.23
2022-08-07T22:03:36.899Z,13.17
2022-08-07T22:06:49.725Z,13.11
2022-08-07T22:09:57.428Z,13.04
2022-08-07T22:13:09.434Z,12.97
2022-08-07T22:16:38.768Z,12.86
2022-08-07T22:20:07.008Z,12.77
2022-08-07T22:23:17.854Z,12.71
2022-08-07T22:27:01.735Z,12.65
2022-08-07T22:30:12.528Z,12.57
2022-08-07T22:33:17.007Z,12.50
2022-08-07T22:36:46.420Z,12.43
2022-08-07T22:40:10.846Z,12.40
2022-08-07T22:43:16.762Z,12.39
2022-08-07T22:47:04.377Z,12.37
2022-08-07T22:50:40.121Z,12.29
2022-08-07T22:54:07.423Z,12.22
2022-08-07T22:57:33.780Z,12.14
2022-08-07T23:00:58.223Z,12.04
2022-08-07T23:04:19.995Z,11.94
2022-08-07T23:07:45.975Z,11.83
2022-08-07T23:10:53.510Z,11.74
2022-08-07T23:14:16.134Z,11.65
2022-08-07T23:17:41.753Z,11.56
2022-08-07T23:21:30.462Z,11.48
2022-08-07T23:24:56.253Z,11.40
2022-08-07T23:28:35.205Z,11.29
2022-08-07T23:34:20.231Z,11.19
2022-08-07T23:35:23.945Z,11.11
2022-08-07T23:39:08.604Z,11.05
2022-08-07T23:42:30.413Z,11.01
2022-08-07T23:46:02.830Z,10.97
2022-08-07T23:49:42.108Z,10.94
2022-08-07T23:53:16.794Z,10.87
2022-08-07T23:56:53.539Z,10.77
